Terminal Aerodrome Forecast
Issued by NWS

Home | Current Version | Previous Version | Text Only | Print | Product List | Glossary On
Versions: 1 2 3 4 5 6 7 8 9 10 11 12
000
FTUS45 KREV 251120
TAFTVL
TAF
KTVL 251120Z 2512/2612 VRB04KT P6SM SKC
     FM251700 20010G20KT P6SM FEW070
     FM260100 19004KT P6SM FEW070=

USA.gov is the U.S. government's official web portal to all federal, state and local government web resources and services.